sensor_id;sensor_type;location;lat;lon;timestamp;pressure;altitude;pressure_sealevel;temperature;humidity
80976;BME280;70437;49.466;11.002;2024-03-06T00:02:03;98154.78;;;7.90;100.00
80976;BME280;70437;49.466;11.002;2024-03-06T00:04:34;98154.56;;;7.98;100.00
80976;BME280;70437;49.466;11.002;2024-03-06T00:07:06;98158.28;;;7.83;100.00
80976;BME280;70437;49.466;11.002;2024-03-06T00:09:35;98158.91;;;7.79;100.00
80976;BME280;70437;49.466;11.002;2024-03-06T00:12:04;98169.34;;;7.94;100.00
80976;BME280;70437;49.466;11.002;2024-03-06T00:14:35;98167.31;;;7.96;100.00
80976;BME280;70437;49.466;11.002;2024-03-06T00:17:05;98176.94;;;8.03;100.00
80976;BME280;70437;49.466;11.002;2024-03-06T00:19:39;98175.94;;;7.91;100.00
80976;BME280;70437;49.466;11.002;2024-03-06T00:22:09;98174.06;;;7.72;100.00
80976;BME280;70437;49.466;11.002;2024-03-06T00:24:38;98180.84;;;7.81;100.00
80976;BME280;70437;49.466;11.002;2024-03-06T00:27:07;98174.91;;;7.79;100.00
80976;BME280;70437;49.466;11.002;2024-03-06T00:29:39;98184.13;;;7.76;100.00
80976;BME280;70437;49.466;11.002;2024-03-06T00:32:08;98183.94;;;7.91;100.00
80976;BME280;70437;49.466;11.002;2024-03-06T00:34:41;98187.19;;;7.80;100.00
80976;BME280;70437;49.466;11.002;2024-03-06T00:37:13;98195.59;;;7.90;100.00
80976;BME280;70437;49.466;11.002;2024-03-06T00:39:43;98199.91;;;7.84;100.00
80976;BME280;70437;49.466;11.002;2024-03-06T00:42:12;98199.94;;;7.78;100.00
80976;BME280;70437;49.466;11.002;2024-03-06T00:44:42;98199.50;;;7.81;100.00
80976;BME280;70437;49.466;11.002;2024-03-06T00:47:13;98197.25;;;7.65;100.00
80976;BME280;70437;49.466;11.002;2024-03-06T00:49:44;98203.41;;;7.65;100.00
80976;BME280;70437;49.466;11.002;2024-03-06T00:52:13;98201.97;;;7.69;100.00
80976;BME280;70437;49.466;11.002;2024-03-06T00:54:43;98199.31;;;7.69;100.00
80976;BME280;70437;49.466;11.002;2024-03-06T00:57:13;98204.00;;;7.67;100.00
80976;BME280;70437;49.466;11.002;2024-03-06T00:59:45;98195.19;;;7.60;100.00
80976;BME280;70437;49.466;11.002;2024-03-06T01:02:15;98191.09;;;7.64;100.00
80976;BME280;70437;49.466;11.002;2024-03-06T01:04:49;98191.50;;;7.61;100.00
80976;BME280;70437;49.466;11.002;2024-03-06T01:07:19;98189.84;;;7.60;100.00
80976;BME280;70437;49.466;11.002;2024-03-06T01:09:53;98196.44;;;7.64;100.00
80976;BME280;70437;49.466;11.002;2024-03-06T01:12:26;98193.16;;;7.69;100.00
80976;BME280;70437;49.466;11.002;2024-03-06T01:14:58;98197.44;;;7.76;100.00
80976;BME280;70437;49.466;11.002;2024-03-06T01:17:29;98203.63;;;7.77;100.00
80976;BME280;70437;49.466;11.002;2024-03-06T01:20:01;98190.28;;;7.77;100.00
80976;BME280;70437;49.466;11.002;2024-03-06T01:22:32;98187.22;;;7.87;100.00
80976;BME280;70437;49.466;11.002;2024-03-06T01:25:03;98185.56;;;7.85;100.00
80976;BME280;70437;49.466;11.002;2024-03-06T01:27:34;98190.91;;;7.92;100.00
80976;BME280;70437;49.466;11.002;2024-03-06T01:30:04;98181.25;;;7.84;100.00
80976;BME280;70437;49.466;11.002;2024-03-06T01:32:34;98175.91;;;7.71;100.00
80976;BME280;70437;49.466;11.002;2024-03-06T01:35:06;98182.03;;;7.58;100.00
80976;BME280;70437;49.466;11.002;2024-03-06T01:37:35;98183.06;;;7.57;100.00
80976;BME280;70437;49.466;11.002;2024-03-06T01:40:07;98188.81;;;7.54;100.00
80976;BME280;70437;49.466;11.002;2024-03-06T01:42:39;98186.34;;;7.46;100.00
80976;BME280;70437;49.466;11.002;2024-03-06T01:45:08;98184.06;;;7.50;100.00
80976;BME280;70437;49.466;11.002;2024-03-06T01:47:40;98187.81;;;7.55;100.00
80976;BME280;70437;49.466;11.002;2024-03-06T01:50:13;98191.88;;;7.45;100.00
80976;BME280;70437;49.466;11.002;2024-03-06T01:52:45;98190.00;;;7.39;100.00
80976;BME280;70437;49.466;11.002;2024-03-06T01:55:16;98194.75;;;7.43;100.00
80976;BME280;70437;49.466;11.002;2024-03-06T01:57:49;98198.44;;;7.49;100.00
80976;BME280;70437;49.466;11.002;2024-03-06T02:00:20;98198.00;;;7.45;100.00
80976;BME280;70437;49.466;11.002;2024-03-06T02:02:50;98197.00;;;7.46;100.00
80976;BME280;70437;49.466;11.002;2024-03-06T02:05:23;98202.75;;;7.43;100.00
80976;BME280;70437;49.466;11.002;2024-03-06T02:07:53;98207.84;;;7.38;100.00
80976;BME280;70437;49.466;11.002;2024-03-06T02:10:23;98203.78;;;7.49;100.00
80976;BME280;70437;49.466;11.002;2024-03-06T02:12:58;98191.47;;;7.48;100.00
80976;BME280;70437;49.466;11.002;2024-03-06T02:15:28;98187.78;;;7.42;100.00
80976;BME280;70437;49.466;11.002;2024-03-06T02:18:05;98187.16;;;7.53;100.00
80976;BME280;70437;49.466;11.002;2024-03-06T02:20:38;98181.81;;;7.40;100.00
80976;BME280;70437;49.466;11.002;2024-03-06T02:23:08;98182.03;;;7.52;100.00
80976;BME280;70437;49.466;11.002;2024-03-06T02:25:37;98183.91;;;7.58;100.00
80976;BME280;70437;49.466;11.002;2024-03-06T02:28:07;98182.03;;;7.52;100.00
80976;BME280;70437;49.466;11.002;2024-03-06T02:30:37;98168.94;;;7.64;100.00
80976;BME280;70437;49.466;11.002;2024-03-06T02:33:08;98171.34;;;7.45;100.00
80976;BME280;70437;49.466;11.002;2024-03-06T02:35:40;98169.69;;;7.31;100.00
80976;BME280;70437;49.466;11.002;2024-03-06T02:38:12;98172.75;;;7.15;100.00
80976;BME280;70437;49.466;11.002;2024-03-06T02:40:43;98166.19;;;7.17;100.00
80976;BME280;70437;49.466;11.002;2024-03-06T02:43:12;98169.47;;;7.19;100.00
80976;BME280;70437;49.466;11.002;2024-03-06T02:45:44;98164.78;;;7.28;100.00
80976;BME280;70437;49.466;11.002;2024-03-06T02:48:13;98163.34;;;7.32;100.00
80976;BME280;70437;49.466;11.002;2024-03-06T02:50:44;98169.09;;;7.29;100.00
80976;BME280;70437;49.466;11.002;2024-03-06T02:53:14;98175.88;;;7.45;100.00
80976;BME280;70437;49.466;11.002;2024-03-06T02:55:45;98176.44;;;7.20;100.00
80976;BME280;70437;49.466;11.002;2024-03-06T02:58:15;98179.78;;;7.42;100.00
80976;BME280;70437;49.466;11.002;2024-03-06T03:00:45;98182.88;;;7.46;100.00
80976;BME280;70437;49.466;11.002;2024-03-06T03:03:16;98183.47;;;7.48;100.00
80976;BME280;70437;49.466;11.002;2024-03-06T03:05:50;98180.59;;;7.49;100.00
80976;BME280;70437;49.466;11.002;2024-03-06T03:08:21;98174.03;;;7.58;100.00
80976;BME280;70437;49.466;11.002;2024-03-06T03:10:50;98173.66;;;7.55;100.00
80976;BME280;70437;49.466;11.002;2024-03-06T03:13:20;98169.50;;;7.32;100.00
80976;BME280;70437;49.466;11.002;2024-03-06T03:15:49;98165.22;;;7.38;100.00
80976;BME280;70437;49.466;11.002;2024-03-06T03:18:19;98161.50;;;7.26;100.00
80976;BME280;70437;49.466;11.002;2024-03-06T03:20:59;98167.81;;;7.18;100.00
80976;BME280;70437;49.466;11.002;2024-03-06T03:23:32;98170.69;;;7.10;100.00
80976;BME280;70437;49.466;11.002;2024-03-06T03:26:02;98172.50;;;7.09;100.00
80976;BME280;70437;49.466;11.002;2024-03-06T03:28:31;98172.09;;;7.13;100.00
80976;BME280;70437;49.466;11.002;2024-03-06T03:31:01;98177.00;;;7.09;100.00
80976;BME280;70437;49.466;11.002;2024-03-06T03:33:30;98177.00;;;7.02;100.00
80976;BME280;70437;49.466;11.002;2024-03-06T03:36:01;98189.09;;;7.05;100.00
80976;BME280;70437;49.466;11.002;2024-03-06T03:38:35;98192.00;;;7.10;100.00
80976;BME280;70437;49.466;11.002;2024-03-06T03:41:07;98184.19;;;7.08;100.00
80976;BME280;70437;49.466;11.002;2024-03-06T03:43:37;98188.69;;;7.01;100.00
80976;BME280;70437;49.466;11.002;2024-03-06T03:46:06;98191.13;;;7.03;100.00
80976;BME280;70437;49.466;11.002;2024-03-06T03:48:37;98188.69;;;7.01;100.00
80976;BME280;70437;49.466;11.002;2024-03-06T03:51:09;98183.53;;;7.00;100.00
80976;BME280;70437;49.466;11.002;2024-03-06T03:53:39;98188.44;;;6.96;100.00
80976;BME280;70437;49.466;11.002;2024-03-06T03:56:10;98198.09;;;7.04;100.00
80976;BME280;70437;49.466;11.002;2024-03-06T03:58:39;98191.75;;;7.05;100.00
80976;BME280;70437;49.466;11.002;2024-03-06T04:01:10;98197.50;;;7.02;100.00
80976;BME280;70437;49.466;11.002;2024-03-06T04:03:47;98201.19;;;7.07;100.00
80976;BME280;70437;49.466;11.002;2024-03-06T04:06:21;98215.13;;;7.09;100.00
80976;BME280;70437;49.466;11.002;2024-03-06T04:08:51;98213.53;;;7.15;100.00
80976;BME280;70437;49.466;11.002;2024-03-06T04:11:20;98211.47;;;7.11;100.00
80976;BME280;70437;49.466;11.002;2024-03-06T04:13:50;98217.00;;;7.16;100.00
80976;BME280;70437;49.466;11.002;2024-03-06T04:16:20;98206.78;;;7.19;100.00
80976;BME280;70437;49.466;11.002;2024-03-06T04:18:50;98209.19;;;7.07;100.00
80976;BME280;70437;49.466;11.002;2024-03-06T04:21:20;98214.09;;;7.04;100.00
80976;BME280;70437;49.466;11.002;2024-03-06T04:23:51;98212.88;;;7.13;100.00
80976;BME280;70437;49.466;11.002;2024-03-06T04:26:21;98218.44;;;7.18;100.00
80976;BME280;70437;49.466;11.002;2024-03-06T04:28:52;98217.41;;;7.13;100.00
80976;BME280;70437;49.466;11.002;2024-03-06T04:31:22;98218.22;;;7.06;100.00
80976;BME280;70437;49.466;11.002;2024-03-06T04:33:52;98212.88;;;7.06;100.00
80976;BME280;70437;49.466;11.002;2024-03-06T04:36:23;98218.38;;;6.98;100.00
80976;BME280;70437;49.466;11.002;2024-03-06T04:38:53;98215.50;;;7.00;100.00
80976;BME280;70437;49.466;11.002;2024-03-06T04:41:24;98212.25;;;7.04;100.00
80976;BME280;70437;49.466;11.002;2024-03-06T04:43:55;98220.22;;;7.04;100.00
80976;BME280;70437;49.466;11.002;2024-03-06T04:46:26;98213.53;;;7.15;100.00
80976;BME280;70437;49.466;11.002;2024-03-06T04:48:58;98213.66;;;7.00;100.00
80976;BME280;70437;49.466;11.002;2024-03-06T04:51:35;98214.84;;;6.91;100.00
80976;BME280;70437;49.466;11.002;2024-03-06T04:54:04;98213.66;;;7.00;100.00
80976;BME280;70437;49.466;11.002;2024-03-06T04:56:34;98222.44;;;6.94;100.00
80976;BME280;70437;49.466;11.002;2024-03-06T04:59:03;98224.75;;;7.04;100.00
80976;BME280;70437;49.466;11.002;2024-03-06T05:01:36;98233.09;;;6.94;100.00
80976;BME280;70437;49.466;11.002;2024-03-06T05:04:05;98235.59;;;7.02;100.00
80976;BME280;70437;49.466;11.002;2024-03-06T05:06:53;98237.53;;;7.22;100.00
80976;BME280;70437;49.466;11.002;2024-03-06T05:09:43;98241.81;;;7.16;100.00
80976;BME280;70437;49.466;11.002;2024-03-06T05:12:30;98246.31;;;7.16;100.00
80976;BME280;70437;49.466;11.002;2024-03-06T05:15:16;98253.50;;;7.15;100.00
80976;BME280;70437;49.466;11.002;2024-03-06T05:18:05;98249.22;;;7.21;100.00
80976;BME280;70437;49.466;11.002;2024-03-06T05:20:54;98249.22;;;7.27;100.00
80976;BME280;70437;49.466;11.002;2024-03-06T05:23:42;98236.53;;;7.29;100.00
80976;BME280;70437;49.466;11.002;2024-03-06T05:26:29;98238.75;;;7.19;100.00
80976;BME280;70437;49.466;11.002;2024-03-06T05:29:15;98225.94;;;6.95;100.00
80976;BME280;70437;49.466;11.002;2024-03-06T05:32:02;98232.44;;;6.86;100.00
80976;BME280;70437;49.466;11.002;2024-03-06T05:34:48;98244.19;;;6.98;100.00
80976;BME280;70437;49.466;11.002;2024-03-06T05:37:35;98257.47;;;6.91;100.00
80976;BME280;70437;49.466;11.002;2024-03-06T05:40:23;98264.72;;;7.04;100.00
80976;BME280;70437;49.466;11.002;2024-03-06T05:43:11;98265.78;;;7.16;100.00
80976;BME280;70437;49.466;11.002;2024-03-06T05:45:58;98261.31;;;7.23;100.00
80976;BME280;70437;49.466;11.002;2024-03-06T05:48:46;98262.91;;;7.18;100.00
80976;BME280;70437;49.466;11.002;2024-03-06T05:51:35;98262.53;;;7.27;100.00
80976;BME280;70437;49.466;11.002;2024-03-06T05:54:23;98270.53;;;7.21;100.00
80976;BME280;70437;49.466;11.002;2024-03-06T05:57:12;98267.75;;;7.01;100.00
80976;BME280;70437;49.466;11.002;2024-03-06T06:00:07;98270.47;;;7.14;100.00
80976;BME280;70437;49.466;11.002;2024-03-06T06:02:39;98279.34;;;7.21;100.00
80976;BME280;70437;49.466;11.002;2024-03-06T06:05:10;98276.06;;;7.26;100.00
80976;BME280;70437;49.466;11.002;2024-03-06T06:07:45;98283.91;;;7.34;100.00
80976;BME280;70437;49.466;11.002;2024-03-06T06:10:18;98285.53;;;7.35;100.00
80976;BME280;70437;49.466;11.002;2024-03-06T06:12:57;98291.25;;;7.25;100.00
80976;BME280;70437;49.466;11.002;2024-03-06T06:15:29;98298.00;;;7.21;100.00
80976;BME280;70437;49.466;11.002;2024-03-06T06:18:00;98304.41;;;7.40;100.00
80976;BME280;70437;49.466;11.002;2024-03-06T06:20:32;98301.38;;;7.50;100.00
80976;BME280;70437;49.466;11.002;2024-03-06T06:23:04;98308.72;;;7.34;100.00
80976;BME280;70437;49.466;11.002;2024-03-06T06:25:36;98311.75;;;7.31;100.00
80976;BME280;70437;49.466;11.002;2024-03-06T06:28:07;98314.50;;;7.45;100.00
80976;BME280;70437;49.466;11.002;2024-03-06T06:30:38;98320.03;;;7.43;100.00
80976;BME280;70437;49.466;11.002;2024-03-06T06:33:11;98316.78;;;7.54;100.00
80976;BME280;70437;49.466;11.002;2024-03-06T06:35:43;98326.66;;;7.60;100.00
80976;BME280;70437;49.466;11.002;2024-03-06T06:38:13;98327.47;;;7.61;100.00
80976;BME280;70437;49.466;11.002;2024-03-06T06:40:42;98327.06;;;7.57;100.00
80976;BME280;70437;49.466;11.002;2024-03-06T06:43:14;98335.03;;;7.51;100.00
80976;BME280;70437;49.466;11.002;2024-03-06T06:45:44;98332.59;;;7.56;100.00
80976;BME280;70437;49.466;11.002;2024-03-06T06:48:15;98338.53;;;7.51;100.00
80976;BME280;70437;49.466;11.002;2024-03-06T06:50:44;98339.22;;;7.73;100.00
80976;BME280;70437;49.466;11.002;2024-03-06T06:53:16;98332.91;;;7.88;100.00
80976;BME280;70437;49.466;11.002;2024-03-06T06:55:45;98334.94;;;7.79;100.00
80976;BME280;70437;49.466;11.002;2024-03-06T06:58:15;98339.63;;;7.70;100.00
80976;BME280;70437;49.466;11.002;2024-03-06T07:00:45;98330.03;;;7.89;100.00
80976;BME280;70437;49.466;11.002;2024-03-06T07:03:15;98345.03;;;8.03;100.00
80976;BME280;70437;49.466;11.002;2024-03-06T07:05:53;98344.41;;;8.01;100.00
80976;BME280;70437;49.466;11.002;2024-03-06T07:08:25;98338.06;;;8.02;100.00
80976;BME280;70437;49.466;11.002;2024-03-06T07:10:54;98348.16;;;8.14;100.00
80976;BME280;70437;49.466;11.002;2024-03-06T07:13:27;98350.63;;;8.22;100.00
80976;BME280;70437;49.466;11.002;2024-03-06T07:15:56;98351.88;;;8.39;100.00
80976;BME280;70437;49.466;11.002;2024-03-06T07:18:29;98354.16;;;8.42;100.00
80976;BME280;70437;49.466;11.002;2024-03-06T07:21:01;98359.47;;;8.35;100.00
80976;BME280;70437;49.466;11.002;2024-03-06T07:23:32;98356.44;;;8.45;100.00
80976;BME280;70437;49.466;11.002;2024-03-06T07:26:01;98368.13;;;8.38;100.00
80976;BME280;70437;49.466;11.002;2024-03-06T07:28:32;98367.91;;;8.39;100.00
80976;BME280;70437;49.466;11.002;2024-03-06T07:31:04;98362.34;;;8.34;100.00
80976;BME280;70437;49.466;11.002;2024-03-06T07:33:36;98356.59;;;8.30;100.00
80976;BME280;70437;49.466;11.002;2024-03-06T07:36:06;98366.09;;;8.40;100.00
80976;BME280;70437;49.466;11.002;2024-03-06T07:38:39;98362.34;;;8.34;100.00
80976;BME280;70437;49.466;11.002;2024-03-06T07:41:09;98359.72;;;8.41;100.00
80976;BME280;70437;49.466;11.002;2024-03-06T07:43:40;98372.47;;;8.45;100.00
80976;BME280;70437;49.466;11.002;2024-03-06T07:46:11;98370.38;;;8.47;100.00
80976;BME280;70437;49.466;11.002;2024-03-06T07:48:42;98376.34;;;8.56;100.00
80976;BME280;70437;49.466;11.002;2024-03-06T07:51:12;98379.03;;;8.56;100.00
80976;BME280;70437;49.466;11.002;2024-03-06T07:53:42;98378.63;;;8.59;100.00
80976;BME280;70437;49.466;11.002;2024-03-06T07:56:14;98379.84;;;8.56;100.00
80976;BME280;70437;49.466;11.002;2024-03-06T07:58:46;98386.63;;;8.52;100.00
80976;BME280;70437;49.466;11.002;2024-03-06T08:01:16;98386.19;;;8.42;100.00
80976;BME280;70437;49.466;11.002;2024-03-06T08:03:50;98386.19;;;8.42;100.00
80976;BME280;70437;49.466;11.002;2024-03-06T08:06:20;98392.78;;;8.46;100.00
80976;BME280;70437;49.466;11.002;2024-03-06T08:08:50;98386.19;;;8.42;100.00
80976;BME280;70437;49.466;11.002;2024-03-06T08:11:21;98388.47;;;8.45;100.00
80976;BME280;70437;49.466;11.002;2024-03-06T08:13:58;98394.88;;;8.71;100.00
80976;BME280;70437;49.466;11.002;2024-03-06T08:16:30;98395.47;;;8.73;100.00
80976;BME280;70437;49.466;11.002;2024-03-06T08:19:04;98397.75;;;8.89;100.00
80976;BME280;70437;49.466;11.002;2024-03-06T08:21:38;98398.53;;;8.96;100.00
80976;BME280;70437;49.466;11.002;2024-03-06T08:24:08;98394.66;;;8.99;100.00
80976;BME280;70437;49.466;11.002;2024-03-06T08:26:38;98400.59;;;9.01;100.00
80976;BME280;70437;49.466;11.002;2024-03-06T08:29:11;98401.22;;;9.09;100.00
80976;BME280;70437;49.466;11.002;2024-03-06T08:31:41;98405.72;;;9.29;100.00
80976;BME280;70437;49.466;11.002;2024-03-06T08:34:14;98405.91;;;9.34;100.00
80976;BME280;70437;49.466;11.002;2024-03-06T08:36:45;98410.25;;;9.22;100.00
80976;BME280;70437;49.466;11.002;2024-03-06T08:39:15;98404.09;;;9.21;100.00
80976;BME280;70437;49.466;11.002;2024-03-06T08:41:44;98414.59;;;9.16;100.00
80976;BME280;70437;49.466;11.002;2024-03-06T08:44:16;98416.44;;;9.16;100.00
80976;BME280;70437;49.466;11.002;2024-03-06T08:46:45;98417.25;;;9.03;100.00
80976;BME280;70437;49.466;11.002;2024-03-06T08:49:16;98414.78;;;9.01;100.00
80976;BME280;70437;49.466;11.002;2024-03-06T08:51:49;98419.09;;;8.82;100.00
80976;BME280;70437;49.466;11.002;2024-03-06T08:54:20;98422.81;;;8.95;100.00
80976;BME280;70437;49.466;11.002;2024-03-06T08:56:50;98425.88;;;9.05;100.00
80976;BME280;70437;49.466;11.002;2024-03-06T08:59:27;98437.38;;;9.05;100.00
80976;BME280;70437;49.466;11.002;2024-03-06T09:01:57;98431.03;;;9.00;100.00
80976;BME280;70437;49.466;11.002;2024-03-06T09:04:28;98430.41;;;9.18;100.00
80976;BME280;70437;49.466;11.002;2024-03-06T09:07:01;98435.53;;;9.19;100.00
80976;BME280;70437;49.466;11.002;2024-03-06T09:09:31;98444.81;;;9.17;100.00
80976;BME280;70437;49.466;11.002;2024-03-06T09:12:06;98433.91;;;8.98;100.00
80976;BME280;70437;49.466;11.002;2024-03-06T09:14:40;98444.19;;;9.08;100.00
80976;BME280;70437;49.466;11.002;2024-03-06T09:17:13;98453.44;;;8.85;100.00
80976;BME280;70437;49.466;11.002;2024-03-06T09:19:46;98445.63;;;9.04;100.00
80976;BME280;70437;49.466;11.002;2024-03-06T09:22:36;98449.75;;;9.20;100.00
80976;BME280;70437;49.466;11.002;2024-03-06T09:25:06;98455.66;;;9.42;100.00
80976;BME280;70437;49.466;11.002;2024-03-06T09:27:36;98446.59;;;9.49;100.00
80976;BME280;70437;49.466;11.002;2024-03-06T09:30:10;98452.78;;;9.56;100.00
80976;BME280;70437;49.466;11.002;2024-03-06T09:32:42;98447.56;;;9.68;100.00
80976;BME280;70437;49.466;11.002;2024-03-06T09:35:14;98450.84;;;9.83;100.00
80976;BME280;70437;49.466;11.002;2024-03-06T09:37:48;98452.13;;;9.74;100.00
80976;BME280;70437;49.466;11.002;2024-03-06T09:40:22;98456.09;;;10.03;100.00
80976;BME280;70437;49.466;11.002;2024-03-06T09:42:52;98452.00;;;10.52;100.00
80976;BME280;70437;49.466;11.002;2024-03-06T09:45:29;98448.09;;;10.48;100.00
80976;BME280;70437;49.466;11.002;2024-03-06T09:47:59;98457.66;;;10.37;100.00
80976;BME280;70437;49.466;11.002;2024-03-06T09:50:32;98457.66;;;10.31;100.00
80976;BME280;70437;49.466;11.002;2024-03-06T09:53:06;98455.94;;;10.50;100.00
80976;BME280;70437;49.466;11.002;2024-03-06T09:55:38;98468.16;;;10.71;100.00
80976;BME280;70437;49.466;11.002;2024-03-06T09:58:09;98455.06;;;10.56;100.00
80976;BME280;70437;49.466;11.002;2024-03-06T10:00:40;98454.00;;;10.63;100.00
80976;BME280;70437;49.466;11.002;2024-03-06T10:03:13;98460.34;;;10.69;100.00
80976;BME280;70437;49.466;11.002;2024-03-06T10:05:42;98455.78;;;10.70;100.00
80976;BME280;70437;49.466;11.002;2024-03-06T10:08:16;98460.59;;;10.61;100.00
80976;BME280;70437;49.466;11.002;2024-03-06T10:10:48;98463.00;;;10.31;100.00
80976;BME280;70437;49.466;11.002;2024-03-06T10:13:23;98472.06;;;10.36;100.00
80976;BME280;70437;49.466;11.002;2024-03-06T10:15:58;98462.78;;;10.39;100.00
80976;BME280;70437;49.466;11.002;2024-03-06T10:18:28;98458.78;;;10.55;100.00
80976;BME280;70437;49.466;11.002;2024-03-06T10:21:00;98460.97;;;10.33;100.00
80976;BME280;70437;49.466;11.002;2024-03-06T10:23:31;98469.69;;;10.08;100.00
80976;BME280;70437;49.466;11.002;2024-03-06T10:26:01;98463.00;;;10.31;100.00
80976;BME280;70437;49.466;11.002;2024-03-06T10:28:33;98457.75;;;10.56;100.00
80976;BME280;70437;49.466;11.002;2024-03-06T10:31:07;98460.34;;;10.69;100.00
80976;BME280;70437;49.466;11.002;2024-03-06T10:33:38;98469.19;;;10.70;100.00
80976;BME280;70437;49.466;11.002;2024-03-06T10:36:10;98467.97;;;10.66;100.00
80976;BME280;70437;49.466;11.002;2024-03-06T10:38:43;98458.13;;;10.91;99.04
80976;BME280;70437;49.466;11.002;2024-03-06T10:41:22;98466.50;;;11.01;97.04
80976;BME280;70437;49.466;11.002;2024-03-06T10:44:00;98468.41;;;11.44;91.96
80976;BME280;70437;49.466;11.002;2024-03-06T10:46:35;98462.94;;;11.76;87.28
80976;BME280;70437;49.466;11.002;2024-03-06T10:49:09;98467.00;;;11.78;82.54
80976;BME280;70437;49.466;11.002;2024-03-06T10:51:45;98464.53;;;11.83;81.03
80976;BME280;70437;49.466;11.002;2024-03-06T10:54:18;98467.19;;;12.20;76.48
80976;BME280;70437;49.466;11.002;2024-03-06T10:56:55;98468.44;;;11.81;76.06
80976;BME280;70437;49.466;11.002;2024-03-06T10:59:26;98470.91;;;11.21;77.63
80976;BME280;70437;49.466;11.002;2024-03-06T11:02:01;98469.91;;;10.90;79.63
80976;BME280;70437;49.466;11.002;2024-03-06T11:05:12;98477.13;;;10.90;79.64
80976;BME280;70437;49.466;11.002;2024-03-06T11:07:49;98469.75;;;10.78;79.18
80976;BME280;70437;49.466;11.002;2024-03-06T11:10:42;98480.94;;;11.00;77.68
80976;BME280;70437;49.466;11.002;2024-03-06T11:13:23;98479.16;;;10.94;77.08
80976;BME280;70437;49.466;11.002;2024-03-06T11:15:57;98478.78;;;10.84;77.37
80976;BME280;70437;49.466;11.002;2024-03-06T11:18:49;98477.06;;;10.96;77.25
80976;BME280;70437;49.466;11.002;2024-03-06T11:21:29;98478.66;;;11.04;76.10
80976;BME280;70437;49.466;11.002;2024-03-06T11:24:33;98475.09;;;10.85;76.48
80976;BME280;70437;49.466;11.002;2024-03-06T11:27:07;98478.94;;;10.64;75.43
80976;BME280;70437;49.466;11.002;2024-03-06T11:30:04;98468.63;;;10.61;75.11
80976;BME280;70437;49.466;11.002;2024-03-06T11:32:59;98475.94;;;10.79;74.57
80976;BME280;70437;49.466;11.002;2024-03-06T11:35:35;98466.94;;;10.67;73.02
80976;BME280;70437;49.466;11.002;2024-03-06T11:38:06;98472.59;;;10.83;72.83
80976;BME280;70437;49.466;11.002;2024-03-06T11:40:43;98475.25;;;10.90;72.95
80976;BME280;70437;49.466;11.002;2024-03-06T11:43:23;98474.88;;;10.86;72.70
80976;BME280;70437;49.466;11.002;2024-03-06T11:46:07;98473.03;;;10.80;71.56
80976;BME280;70437;49.466;11.002;2024-03-06T11:48:39;98477.06;;;10.65;70.93
80976;BME280;70437;49.466;11.002;2024-03-06T11:51:19;98486.00;;;10.52;71.18
80976;BME280;70437;49.466;11.002;2024-03-06T11:53:50;98483.28;;;10.58;71.83
80976;BME280;70437;49.466;11.002;2024-03-06T11:56:20;98483.00;;;10.73;71.16
80976;BME280;70437;49.466;11.002;2024-03-06T11:58:51;98477.22;;;10.76;70.39
80976;BME280;70437;49.466;11.002;2024-03-06T12:01:26;98469.72;;;10.85;70.53
80976;BME280;70437;49.466;11.002;2024-03-06T12:03:56;98473.91;;;10.74;69.87
80976;BME280;70437;49.466;11.002;2024-03-06T12:06:35;98471.41;;;10.79;70.11
80976;BME280;70437;49.466;11.002;2024-03-06T12:09:07;98478.03;;;10.77;70.06
80976;BME280;70437;49.466;11.002;2024-03-06T12:11:39;98472.75;;;10.63;70.64
80976;BME280;70437;49.466;11.002;2024-03-06T12:14:18;98476.84;;;10.66;71.15
80976;BME280;70437;49.466;11.002;2024-03-06T12:16:56;98474.81;;;10.61;71.20
80976;BME280;70437;49.466;11.002;2024-03-06T12:19:31;98473.31;;;10.72;71.11
80976;BME280;70437;49.466;11.002;2024-03-06T12:22:04;98474.94;;;11.05;70.69
80976;BME280;70437;49.466;11.002;2024-03-06T12:24:44;98474.13;;;11.04;70.39
80976;BME280;70437;49.466;11.002;2024-03-06T12:27:22;98481.84;;;10.87;69.94
80976;BME280;70437;49.466;11.002;2024-03-06T12:29:53;98469.50;;;10.86;70.16
80976;BME280;70437;49.466;11.002;2024-03-06T12:32:25;98478.28;;;10.94;69.81
80976;BME280;70437;49.466;11.002;2024-03-06T12:34:59;98480.38;;;10.92;70.13
80976;BME280;70437;49.466;11.002;2024-03-06T12:37:32;98476.34;;;10.76;69.81
80976;BME280;70437;49.466;11.002;2024-03-06T12:40:02;98475.13;;;10.78;71.05
80976;BME280;70437;49.466;11.002;2024-03-06T12:42:33;98478.59;;;10.85;68.75
80976;BME280;70437;49.466;11.002;2024-03-06T12:45:04;98480.53;;;10.72;68.07
80976;BME280;70437;49.466;11.002;2024-03-06T12:47:36;98475.94;;;10.79;67.61
80976;BME280;70437;49.466;11.002;2024-03-06T12:50:09;98476.34;;;10.82;66.99
80976;BME280;70437;49.466;11.002;2024-03-06T12:52:42;98479.56;;;10.91;66.61
80976;BME280;70437;49.466;11.002;2024-03-06T12:55:14;98473.41;;;10.84;67.76
80976;BME280;70437;49.466;11.002;2024-03-06T12:57:45;98474.81;;;10.93;67.91
80976;BME280;70437;49.466;11.002;2024-03-06T13:00:15;98472.28;;;10.98;67.67
80976;BME280;70437;49.466;11.002;2024-03-06T13:02:44;98478.91;;;10.96;67.22
80976;BME280;70437;49.466;11.002;2024-03-06T13:05:16;98471.72;;;11.21;67.07
80976;BME280;70437;49.466;11.002;2024-03-06T13:07:52;98470.88;;;11.46;66.53
80976;BME280;70437;49.466;11.002;2024-03-06T13:10:24;98475.19;;;11.65;66.05
80976;BME280;70437;49.466;11.002;2024-03-06T13:12:54;98478.59;;;11.79;65.45
80976;BME280;70437;49.466;11.002;2024-03-06T13:15:29;98472.38;;;11.60;65.00
80976;BME280;70437;49.466;11.002;2024-03-06T13:17:59;98474.09;;;11.54;64.56
80976;BME280;70437;49.466;11.002;2024-03-06T13:20:34;98473.72;;;11.69;63.76
80976;BME280;70437;49.466;11.002;2024-03-06T13:23:06;98474.19;;;11.66;65.14